createdAt,value
2018-09-22T00:00:00.158Z,0.00
2018-09-22T00:01:00.141Z,0.00
2018-09-22T00:02:00.100Z,0.00
2018-09-22T00:03:00.086Z,0.00
2018-09-22T00:04:00.054Z,0.00
2018-09-22T00:05:00.032Z,0.00
2018-09-22T00:05:59.998Z,0.00
2018-09-22T00:06:59.976Z,0.00
2018-09-22T00:07:59.946Z,0.00
2018-09-22T00:08:59.920Z,0.00
2018-09-22T00:09:59.898Z,0.00
2018-09-22T00:10:59.867Z,0.00
2018-09-22T00:11:59.844Z,0.00
2018-09-22T00:12:59.820Z,0.00
2018-09-22T00:13:59.784Z,0.00
2018-09-22T00:14:59.768Z,0.00
2018-09-22T00:15:59.736Z,0.00
2018-09-22T00:16:59.995Z,0.00
2018-09-22T00:17:59.690Z,0.00
2018-09-22T00:18:59.661Z,0.00
2018-09-22T00:19:59.636Z,0.00
2018-09-22T00:20:59.607Z,0.00
2018-09-22T00:21:59.776Z,0.00
2018-09-22T00:22:59.551Z,0.00
2018-09-22T00:23:59.529Z,0.00
2018-09-22T00:24:59.502Z,0.00
2018-09-22T00:25:59.471Z,0.00
2018-09-22T00:26:59.513Z,0.00
2018-09-22T00:27:59.420Z,0.00
2018-09-22T00:28:59.390Z,0.00
2018-09-22T00:29:59.373Z,0.00
2018-09-22T00:30:59.337Z,0.00
2018-09-22T00:31:59.347Z,0.00
2018-09-22T00:32:59.291Z,0.00
2018-09-22T00:33:59.256Z,0.00
2018-09-22T00:34:59.245Z,0.00
2018-09-22T00:35:59.203Z,0.00
2018-09-22T00:36:59.183Z,0.00
2018-09-22T00:37:59.155Z,0.00
2018-09-22T00:38:59.127Z,0.00
2018-09-22T00:39:59.102Z,0.00
2018-09-22T00:40:59.076Z,0.00
2018-09-22T00:41:59.050Z,0.00
2018-09-22T00:42:59.026Z,0.00
2018-09-22T00:43:59.000Z,0.00
2018-09-22T00:44:58.974Z,0.00
2018-09-22T00:45:58.942Z,0.00
2018-09-22T00:46:58.920Z,0.00
2018-09-22T00:47:58.886Z,0.00
2018-09-22T00:48:58.859Z,0.00
2018-09-22T00:49:58.840Z,0.00
2018-09-22T00:50:58.805Z,0.00
2018-09-22T00:51:58.788Z,0.00
2018-09-22T00:52:58.754Z,0.00
2018-09-22T00:53:58.729Z,0.00
2018-09-22T00:54:58.701Z,0.00
2018-09-22T00:55:58.675Z,0.00
2018-09-22T00:56:58.655Z,0.00
2018-09-22T00:57:58.624Z,0.00
2018-09-22T00:58:58.595Z,0.00
2018-09-22T00:59:58.563Z,0.00
2018-09-22T01:00:58.535Z,0.00
2018-09-22T01:01:58.517Z,0.00
2018-09-22T01:02:58.485Z,0.00
2018-09-22T01:03:58.455Z,0.00
2018-09-22T01:04:58.433Z,0.00
2018-09-22T01:05:58.398Z,0.00
2018-09-22T01:06:58.376Z,0.00
2018-09-22T01:07:58.351Z,0.00
2018-09-22T01:08:58.329Z,0.00
2018-09-22T01:09:58.298Z,0.00
2018-09-22T01:10:58.264Z,0.00
2018-09-22T01:11:58.246Z,0.00
2018-09-22T01:12:58.219Z,0.00
2018-09-22T01:13:58.183Z,0.00
2018-09-22T01:14:58.164Z,0.00
2018-09-22T01:15:58.202Z,0.00
2018-09-22T01:16:58.114Z,0.00
2018-09-22T01:17:58.085Z,0.00
2018-09-22T01:18:58.060Z,0.00
2018-09-22T01:19:58.025Z,0.00
2018-09-22T01:20:58.015Z,0.00
2018-09-22T01:21:57.977Z,0.00
2018-09-22T01:22:57.947Z,0.00
2018-09-22T01:23:57.925Z,0.00
2018-09-22T01:24:57.898Z,0.00
2018-09-22T01:25:57.859Z,0.00
2018-09-22T01:26:57.845Z,0.00
2018-09-22T01:27:57.815Z,0.00
2018-09-22T01:28:57.783Z,0.00
2018-09-22T01:29:57.765Z,0.00
2018-09-22T01:30:57.729Z,0.00
2018-09-22T01:31:57.705Z,0.00
2018-09-22T01:32:57.675Z,0.00
2018-09-22T01:33:57.658Z,0.00
2018-09-22T01:34:57.628Z,0.00
2018-09-22T01:35:57.603Z,0.00
2018-09-22T01:36:57.576Z,0.00
2018-09-22T01:37:57.542Z,0.00
2018-09-22T01:38:57.535Z,0.00
2018-09-22T01:39:57.489Z,0.00
2018-09-22T01:40:57.461Z,0.00
2018-09-22T01:41:57.441Z,0.00
2018-09-22T01:42:57.407Z,0.00
2018-09-22T01:43:57.388Z,0.00
2018-09-22T01:44:57.362Z,0.00
2018-09-22T01:45:57.326Z,0.00
2018-09-22T01:46:57.303Z,0.00
2018-09-22T01:47:57.274Z,0.00
2018-09-22T01:48:57.254Z,0.00
2018-09-22T01:49:57.217Z,0.00
2018-09-22T01:50:57.201Z,0.00
2018-09-22T01:51:57.166Z,0.00
2018-09-22T01:52:57.964Z,0.00
2018-09-22T01:53:57.117Z,0.00
2018-09-22T01:54:57.085Z,0.00
2018-09-22T01:55:57.066Z,0.00
2018-09-22T01:56:57.039Z,0.00
2018-09-22T01:57:57.011Z,0.00
2018-09-22T01:58:56.988Z,0.00
2018-09-22T01:59:56.960Z,0.00
2018-09-22T02:00:56.933Z,0.00
2018-09-22T02:01:56.898Z,0.00
2018-09-22T02:02:56.881Z,0.00
2018-09-22T02:03:56.855Z,0.00
2018-09-22T02:04:56.835Z,0.00
2018-09-22T02:05:56.797Z,0.00
2018-09-22T02:06:56.766Z,0.00
2018-09-22T02:07:56.745Z,0.00
2018-09-22T02:08:56.713Z,0.00
2018-09-22T02:09:56.691Z,0.00
2018-09-22T02:10:56.667Z,0.00
2018-09-22T02:11:56.629Z,0.00
2018-09-22T02:12:56.614Z,0.00
2018-09-22T02:13:56.578Z,0.00
2018-09-22T02:14:56.548Z,0.00
2018-09-22T02:15:56.535Z,0.00
2018-09-22T02:16:56.498Z,0.00
2018-09-22T02:17:56.469Z,0.00
2018-09-22T02:18:56.448Z,0.00
2018-09-22T02:19:56.413Z,0.00
2018-09-22T02:20:56.398Z,0.00
2018-09-22T02:21:56.366Z,0.00
2018-09-22T02:22:56.346Z,0.00
2018-09-22T02:23:56.311Z,0.00
2018-09-22T02:24:56.293Z,0.00
2018-09-22T02:25:56.264Z,0.00
2018-09-22T02:26:56.226Z,0.00
2018-09-22T02:27:56.213Z,0.00
2018-09-22T02:28:56.181Z,0.00
2018-09-22T02:29:56.145Z,0.00
2018-09-22T02:30:56.136Z,0.00
2018-09-22T02:31:56.097Z,0.00
2018-09-22T02:32:56.069Z,0.00
2018-09-22T02:33:56.048Z,0.00
2018-09-22T02:34:56.013Z,0.00
2018-09-22T02:35:56.000Z,0.00
2018-09-22T02:36:55.964Z,0.00
2018-09-22T02:37:55.935Z,0.00
2018-09-22T02:38:55.911Z,0.00
2018-09-22T02:39:55.889Z,0.00
2018-09-22T02:40:55.853Z,0.00
2018-09-22T02:41:55.844Z,0.00
2018-09-22T02:42:55.798Z,0.00
2018-09-22T02:43:55.774Z,0.00
2018-09-22T02:44:55.745Z,0.00
2018-09-22T02:45:55.725Z,0.00
2018-09-22T02:46:55.696Z,0.00
2018-09-22T02:47:55.665Z,0.00
2018-09-22T02:48:55.646Z,0.00
2018-09-22T02:49:55.612Z,0.00
2018-09-22T02:50:55.584Z,0.00
2018-09-22T02:51:55.564Z,0.00
2018-09-22T02:52:55.531Z,0.00
2018-09-22T02:53:55.507Z,0.00
2018-09-22T02:54:55.485Z,0.00
2018-09-22T02:55:55.448Z,0.00
2018-09-22T02:56:55.429Z,0.00
2018-09-22T02:57:55.396Z,0.00
2018-09-22T02:58:55.369Z,0.00
2018-09-22T02:59:55.352Z,0.00
2018-09-22T03:00:55.317Z,0.00
2018-09-22T03:01:55.297Z,0.00
2018-09-22T03:02:55.266Z,0.00
2018-09-22T03:03:55.240Z,0.00
2018-09-22T03:04:55.215Z,0.00
2018-09-22T03:05:55.188Z,0.00
2018-09-22T03:06:55.154Z,0.00
2018-09-22T03:07:55.133Z,0.00
2018-09-22T03:08:55.165Z,0.00
2018-09-22T03:09:55.075Z,0.00
2018-09-22T03:10:55.051Z,0.00
2018-09-22T03:11:55.027Z,0.00
2018-09-22T03:12:54.995Z,0.00
2018-09-22T03:13:54.971Z,0.00
2018-09-22T03:14:54.946Z,0.00
2018-09-22T03:15:54.913Z,0.00
2018-09-22T03:16:54.894Z,0.00
2018-09-22T03:17:54.860Z,0.00
2018-09-22T03:18:54.830Z,0.00
2018-09-22T03:19:54.817Z,0.00
2018-09-22T03:20:54.780Z,0.00
2018-09-22T03:21:54.751Z,0.00
2018-09-22T03:22:54.727Z,0.00
2018-09-22T03:23:54.697Z,0.00
2018-09-22T03:24:54.678Z,0.00
2018-09-22T03:25:54.642Z,0.00
2018-09-22T03:26:54.624Z,0.00
2018-09-22T03:27:54.590Z,0.00
2018-09-22T03:28:54.562Z,0.00
2018-09-22T03:29:54.581Z,0.00
2018-09-22T03:30:54.517Z,0.00
2018-09-22T03:31:54.490Z,0.00
2018-09-22T03:32:54.458Z,0.00
2018-09-22T03:33:54.435Z,0.00
2018-09-22T03:34:54.432Z,0.00
2018-09-22T03:35:54.381Z,0.00
2018-09-22T03:36:54.353Z,0.00
2018-09-22T03:37:54.342Z,0.00
2018-09-22T03:38:54.307Z,0.00
2018-09-22T03:39:54.272Z,0.00
2018-09-22T03:40:54.250Z,0.00
2018-09-22T03:41:54.220Z,0.00
2018-09-22T03:42:54.193Z,0.00
2018-09-22T03:43:54.168Z,0.00
2018-09-22T03:44:54.136Z,0.00
2018-09-22T03:45:54.112Z,0.00
2018-09-22T03:46:54.083Z,0.00
2018-09-22T03:47:54.059Z,0.00
2018-09-22T03:48:54.033Z,0.00
2018-09-22T03:49:54.001Z,0.00
2018-09-22T03:50:53.982Z,0.00
2018-09-22T03:51:53.949Z,0.00
2018-09-22T03:52:53.922Z,0.00
2018-09-22T03:53:53.906Z,0.00
2018-09-22T03:54:53.879Z,0.00
2018-09-22T03:55:53.849Z,0.00
2018-09-22T03:56:53.815Z,0.00
2018-09-22T03:57:53.791Z,0.00
2018-09-22T03:58:53.766Z,0.00
2018-09-22T03:59:53.745Z,0.00
2018-09-22T04:00:53.714Z,0.00
2018-09-22T04:01:53.683Z,0.00
2018-09-22T04:02:53.674Z,0.00
2018-09-22T04:03:53.640Z,0.00
2018-09-22T04:04:53.601Z,0.00
2018-09-22T04:05:53.578Z,0.00
2018-09-22T04:06:53.557Z,0.00
2018-09-22T04:07:53.517Z,0.00
2018-09-22T04:08:53.496Z,0.00
2018-09-22T04:09:53.466Z,0.00
2018-09-22T04:10:53.437Z,0.00
2018-09-22T04:11:53.431Z,0.00
2018-09-22T04:12:53.396Z,0.00
2018-09-22T04:13:53.365Z,0.00
2018-09-22T04:14:53.338Z,0.00
2018-09-22T04:15:53.307Z,0.00
2018-09-22T04:16:53.292Z,0.00
2018-09-22T04:17:53.251Z,0.00
2018-09-22T04:18:53.227Z,0.00
2018-09-22T04:19:53.202Z,0.00
2018-09-22T04:20:53.178Z,0.00
2018-09-22T04:21:53.145Z,0.00
2018-09-22T04:22:53.120Z,0.00
2018-09-22T04:23:53.100Z,0.00
2018-09-22T04:24:53.064Z,0.00
2018-09-22T04:25:53.043Z,0.00
2018-09-22T04:26:53.095Z,0.00
2018-09-22T04:27:52.982Z,0.00
2018-09-22T04:28:52.965Z,0.00
2018-09-22T04:29:52.930Z,0.00
2018-09-22T04:30:52.907Z,0.00
2018-09-22T04:31:52.883Z,0.00
2018-09-22T04:32:52.853Z,0.00
2018-09-22T04:33:52.833Z,0.00
2018-09-22T04:34:52.803Z,0.00
2018-09-22T04:35:52.770Z,0.00
2018-09-22T04:36:52.745Z,0.00
2018-09-22T04:37:52.716Z,0.00
2018-09-22T04:38:52.689Z,0.00
2018-09-22T04:39:52.667Z,0.00
2018-09-22T04:40:52.644Z,0.00
2018-09-22T04:41:52.611Z,0.00
2018-09-22T04:42:52.585Z,0.00
2018-09-22T04:43:52.563Z,0.00
2018-09-22T04:44:52.532Z,0.00
2018-09-22T04:45:52.503Z,0.00
2018-09-22T04:46:52.478Z,0.00
2018-09-22T04:47:52.449Z,0.00
2018-09-22T04:48:52.424Z,0.00
2018-09-22T04:49:52.404Z,0.00
2018-09-22T04:50:52.370Z,0.00
2018-09-22T04:51:52.348Z,0.00
2018-09-22T04:52:52.323Z,0.00
2018-09-22T04:53:52.295Z,0.00
2018-09-22T04:54:52.280Z,0.00
2018-09-22T04:55:52.241Z,0.00
2018-09-22T04:56:52.212Z,0.00
2018-09-22T04:57:52.197Z,0.00
2018-09-22T04:58:52.159Z,0.00
2018-09-22T04:59:52.128Z,0.00
2018-09-22T05:00:52.108Z,0.00
2018-09-22T05:01:52.080Z,0.00
2018-09-22T05:02:52.062Z,0.00
2018-09-22T05:03:52.030Z,0.00
2018-09-22T05:04:51.998Z,0.00
2018-09-22T05:05:51.970Z,0.00
2018-09-22T05:06:51.948Z,0.00
2018-09-22T05:07:51.915Z,0.00
2018-09-22T05:08:51.890Z,0.00
2018-09-22T05:09:51.867Z,0.00
2018-09-22T05:10:51.845Z,0.00
2018-09-22T05:11:51.827Z,0.00
2018-09-22T05:12:51.784Z,0.00
2018-09-22T05:13:51.758Z,0.00
2018-09-22T05:14:51.734Z,0.00
2018-09-22T05:15:51.711Z,0.00
2018-09-22T05:16:51.718Z,0.00
2018-09-22T05:17:51.648Z,5.63
2018-09-22T05:18:51.619Z,5.63
2018-09-22T05:19:51.602Z,5.63
2018-09-22T05:20:51.577Z,0.00
2018-09-22T05:21:51.546Z,0.00
2018-09-22T05:22:51.521Z,0.00
2018-09-22T05:23:51.493Z,0.00
2018-09-22T05:24:51.546Z,5.63
2018-09-22T05:25:51.436Z,5.63
2018-09-22T05:26:51.414Z,5.63
2018-09-22T05:27:51.388Z,5.63
2018-09-22T05:28:51.354Z,5.63
2018-09-22T05:29:51.331Z,5.63
2018-09-22T05:30:51.328Z,5.63
2018-09-22T05:31:51.291Z,5.63
2018-09-22T05:32:51.256Z,5.63
2018-09-22T05:33:51.222Z,5.63
2018-09-22T05:34:51.202Z,5.63
2018-09-22T05:35:51.244Z,5.63
2018-09-22T05:36:51.139Z,11.25
2018-09-22T05:37:51.123Z,11.25
2018-09-22T05:38:51.085Z,11.25
2018-09-22T05:39:51.067Z,11.25
2018-09-22T05:40:51.051Z,11.25
2018-09-22T05:41:51.078Z,11.25
2018-09-22T05:42:50.983Z,16.88
2018-09-22T05:43:50.964Z,16.88
2018-09-22T05:44:51.000Z,16.88
2018-09-22T05:45:50.905Z,16.88
2018-09-22T05:46:50.899Z,22.50
2018-09-22T05:47:50.856Z,28.13
2018-09-22T05:48:50.820Z,22.50
2018-09-22T05:49:50.798Z,16.88
2018-09-22T05:50:50.766Z,16.88
2018-09-22T05:51:50.749Z,16.88
2018-09-22T05:52:50.726Z,16.88
2018-09-22T05:53:50.685Z,22.50
2018-09-22T05:54:50.663Z,22.50
2018-09-22T05:55:50.638Z,22.50
2018-09-22T05:56:50.613Z,22.50
2018-09-22T05:57:50.597Z,22.50
2018-09-22T05:58:50.570Z,22.50
2018-09-22T05:59:50.534Z,22.50
2018-09-22T06:00:50.502Z,16.88
2018-09-22T06:01:50.493Z,16.88
2018-09-22T06:02:50.453Z,22.50
2018-09-22T06:03:50.546Z,22.50
2018-09-22T06:04:50.396Z,33.75
2018-09-22T06:05:50.370Z,33.75
2018-09-22T06:06:50.341Z,33.75
2018-09-22T06:07:50.342Z,33.75
2018-09-22T06:08:50.304Z,33.75
2018-09-22T06:09:50.291Z,33.75
2018-09-22T06:10:50.277Z,33.75
2018-09-22T06:11:50.215Z,33.75
2018-09-22T06:12:50.182Z,33.75
2018-09-22T06:13:50.164Z,33.75
2018-09-22T06:14:50.129Z,39.38
2018-09-22T06:15:50.116Z,39.38
2018-09-22T06:16:50.078Z,39.38
2018-09-22T06:17:50.048Z,45.00
2018-09-22T06:18:50.028Z,50.63
2018-09-22T06:19:50.001Z,50.63
2018-09-22T06:20:49.970Z,56.25
2018-09-22T06:21:49.947Z,61.88
2018-09-22T06:22:49.930Z,73.13
2018-09-22T06:23:49.889Z,61.88
2018-09-22T06:24:49.875Z,61.88
2018-09-22T06:25:49.840Z,61.88
2018-09-22T06:26:49.813Z,61.88
2018-09-22T06:27:49.789Z,50.63
2018-09-22T06:28:49.817Z,50.63
2018-09-22T06:29:49.730Z,39.38
2018-09-22T06:30:49.708Z,39.38
2018-09-22T06:31:49.676Z,45.00
2018-09-22T06:32:49.660Z,61.88
2018-09-22T06:33:49.623Z,73.13
2018-09-22T06:34:49.601Z,73.13
2018-09-22T06:35:49.569Z,61.88
2018-09-22T06:36:49.551Z,45.00
2018-09-22T06:37:49.521Z,45.00
2018-09-22T06:38:49.529Z,50.63
2018-09-22T06:39:49.467Z,56.25
2018-09-22T06:40:49.436Z,61.88
2018-09-22T06:41:49.419Z,56.25
2018-09-22T06:42:49.388Z,50.63
2018-09-22T06:43:49.356Z,50.63
2018-09-22T06:44:49.337Z,50.63
2018-09-22T06:45:49.307Z,50.63
2018-09-22T06:46:49.278Z,50.63
2018-09-22T06:47:49.254Z,56.25
2018-09-22T06:48:49.228Z,61.88
2018-09-22T06:49:49.205Z,67.50
2018-09-22T06:50:49.175Z,73.13
2018-09-22T06:51:49.163Z,84.38
2018-09-22T06:52:49.125Z,90.00
2018-09-22T06:53:49.096Z,90.00
2018-09-22T06:54:49.133Z,90.00
2018-09-22T06:55:49.045Z,90.00
2018-09-22T06:56:49.013Z,90.00
2018-09-22T06:57:48.994Z,84.38
2018-09-22T06:58:48.963Z,73.13
2018-09-22T06:59:48.937Z,67.50
2018-09-22T07:00:48.906Z,56.25
2018-09-22T07:01:48.881Z,50.63
2018-09-22T07:02:48.856Z,45.00
2018-09-22T07:03:48.830Z,45.00
2018-09-22T07:04:48.819Z,45.00
2018-09-22T07:05:48.771Z,50.63
2018-09-22T07:06:48.755Z,56.25
2018-09-22T07:07:48.724Z,61.88
2018-09-22T07:08:48.708Z,67.50
2018-09-22T07:09:48.668Z,67.50
2018-09-22T07:10:48.644Z,67.50
2018-09-22T07:11:48.620Z,67.50
2018-09-22T07:12:48.592Z,67.50
2018-09-22T07:13:48.591Z,67.50
2018-09-22T07:14:48.539Z,67.50
2018-09-22T07:15:48.512Z,67.50
2018-09-22T07:16:48.485Z,73.13
2018-09-22T07:17:48.462Z,67.50
2018-09-22T07:18:48.431Z,73.13
2018-09-22T07:19:48.405Z,78.75
2018-09-22T07:20:48.379Z,78.75
2018-09-22T07:21:48.351Z,84.38
2018-09-22T07:22:48.346Z,84.38
2018-09-22T07:23:48.305Z,84.38
2018-09-22T07:24:48.285Z,84.38
2018-09-22T07:25:48.249Z,84.38
2018-09-22T07:26:48.219Z,84.38
2018-09-22T07:27:48.206Z,78.75
2018-09-22T07:28:48.167Z,73.13
2018-09-22T07:29:48.150Z,73.13
2018-09-22T07:30:48.167Z,73.13
2018-09-22T07:31:48.086Z,73.13
2018-09-22T07:32:48.067Z,73.13
2018-09-22T07:33:48.035Z,78.75
2018-09-22T07:34:48.037Z,84.38
2018-09-22T07:35:47.981Z,90.00
2018-09-22T07:36:47.965Z,90.00
2018-09-22T07:37:47.930Z,90.00
2018-09-22T07:38:47.902Z,84.38
2018-09-22T07:39:47.916Z,84.38
2018-09-22T07:40:47.855Z,84.38
2018-09-22T07:41:47.819Z,84.38
2018-09-22T07:42:47.805Z,84.38
2018-09-22T07:43:47.774Z,84.38
2018-09-22T07:44:47.744Z,90.00
2018-09-22T07:45:47.778Z,90.00
2018-09-22T07:46:47.703Z,90.00
2018-09-22T07:47:47.667Z,90.00
2018-09-22T07:48:47.639Z,90.00
2018-09-22T07:49:47.608Z,90.00
2018-09-22T07:50:47.593Z,90.00
2018-09-22T07:51:47.563Z,90.00
2018-09-22T07:52:47.535Z,90.00
2018-09-22T07:53:47.513Z,95.63
2018-09-22T07:54:47.486Z,101.25
2018-09-22T07:55:47.462Z,106.88
2018-09-22T07:56:47.428Z,112.50
2018-09-22T07:57:47.407Z,112.50
2018-09-22T07:58:47.379Z,118.13
2018-09-22T07:59:47.356Z,129.38
2018-09-22T08:00:47.341Z,129.38
2018-09-22T08:01:47.296Z,129.38
2018-09-22T08:02:47.277Z,135.00
2018-09-22T08:03:47.241Z,135.00
2018-09-22T08:04:47.217Z,123.75
2018-09-22T08:05:47.199Z,123.75
2018-09-22T08:06:47.166Z,123.75
2018-09-22T08:07:47.137Z,118.13
2018-09-22T08:08:47.118Z,112.50
2018-09-22T08:09:47.083Z,112.50
2018-09-22T08:10:47.057Z,101.25
2018-09-22T08:11:47.064Z,95.63
2018-09-22T08:12:47.016Z,90.00
2018-09-22T08:13:46.976Z,90.00
2018-09-22T08:14:46.960Z,84.38
2018-09-22T08:15:46.926Z,84.38
2018-09-22T08:16:46.900Z,84.38
2018-09-22T08:17:46.880Z,78.75
2018-09-22T08:18:46.846Z,84.38
2018-09-22T08:19:46.828Z,90.00
2018-09-22T08:20:46.797Z,90.00
2018-09-22T08:21:46.769Z,90.00
2018-09-22T08:22:46.747Z,90.00
2018-09-22T08:23:46.720Z,90.00
2018-09-22T08:24:46.697Z,95.63
2018-09-22T08:25:46.666Z,101.25
2018-09-22T08:26:46.638Z,106.88
2018-09-22T08:27:46.614Z,112.50
2018-09-22T08:28:46.588Z,118.13
2018-09-22T08:29:53.733Z,123.75
2018-09-22T08:31:39.441Z,129.38
2018-09-22T08:32:39.395Z,129.38
2018-09-22T08:34:32.288Z,118.13
2018-09-22T08:35:32.232Z,118.13
2018-09-22T08:37:25.321Z,135.00
2018-09-22T08:38:25.080Z,140.63
2018-09-22T08:40:18.083Z,146.25
2018-09-22T08:41:18.035Z,151.88
2018-09-22T08:43:10.929Z,151.88
2018-09-22T08:44:10.896Z,151.88
2018-09-22T08:46:03.794Z,140.63
2018-09-22T08:47:03.741Z,140.63
2018-09-22T08:48:56.670Z,140.63
2018-09-22T08:49:56.620Z,140.63
2018-09-22T08:51:49.479Z,129.38
2018-09-22T08:52:49.446Z,118.13
2018-09-22T08:54:42.352Z,112.50
2018-09-22T08:55:42.290Z,123.75
2018-09-22T08:57:35.208Z,129.38
2018-09-22T08:58:35.147Z,123.75
2018-09-22T08:59:35.114Z,101.25
2018-09-22T09:00:35.154Z,95.63
2018-09-22T09:01:35.066Z,84.38
2018-09-22T09:02:35.036Z,84.38
2018-09-22T09:03:35.013Z,78.75
2018-09-22T09:04:34.981Z,73.13
2018-09-22T09:05:34.957Z,73.13
2018-09-22T09:06:34.934Z,67.50
2018-09-22T09:07:34.903Z,67.50
2018-09-22T09:08:34.879Z,61.88
2018-09-22T09:09:34.851Z,61.88
2018-09-22T09:10:34.831Z,56.25
2018-09-22T09:11:34.863Z,56.25
2018-09-22T09:12:34.782Z,56.25
2018-09-22T09:13:34.808Z,56.25
2018-09-22T09:14:34.773Z,56.25
2018-09-22T09:15:34.710Z,61.88
2018-09-22T09:16:34.669Z,61.88
2018-09-22T09:17:34.645Z,67.50
2018-09-22T09:18:34.625Z,67.50
2018-09-22T09:19:34.590Z,67.50
2018-09-22T09:20:34.576Z,67.50
2018-09-22T09:21:34.550Z,73.13
2018-09-22T09:22:34.519Z,78.75
2018-09-22T09:23:34.497Z,84.38
2018-09-22T09:24:34.463Z,84.38
2018-09-22T09:25:34.444Z,90.00
2018-09-22T09:26:34.415Z,90.00
2018-09-22T09:27:34.448Z,90.00
2018-09-22T09:28:34.435Z,90.00
2018-09-22T09:29:34.334Z,90.00
2018-09-22T09:30:34.313Z,90.00
2018-09-22T09:31:34.284Z,95.63
2018-09-22T09:32:34.253Z,101.25
2018-09-22T09:33:34.233Z,106.88
2018-09-22T09:34:34.205Z,112.50
2018-09-22T09:35:34.176Z,123.75
2018-09-22T09:36:34.153Z,129.38
2018-09-22T09:37:34.123Z,129.38
2018-09-22T09:38:34.102Z,135.00
2018-09-22T09:39:34.069Z,135.00
2018-09-22T09:40:34.056Z,123.75
2018-09-22T09:41:34.023Z,129.38
2018-09-22T09:42:34.004Z,135.00
2018-09-22T09:43:34.054Z,146.25
2018-09-22T09:44:33.947Z,157.50
2018-09-22T09:45:33.916Z,174.38
2018-09-22T09:46:33.893Z,180.00
2018-09-22T09:47:33.863Z,191.25
2018-09-22T09:48:33.842Z,174.38
2018-09-22T09:49:33.825Z,157.50
2018-09-22T09:50:33.788Z,157.50
2018-09-22T09:51:33.766Z,151.88
2018-09-22T09:52:33.782Z,140.63
2018-09-22T09:53:33.711Z,106.88
2018-09-22T09:54:33.689Z,95.63
2018-09-22T09:55:33.660Z,95.63
2018-09-22T09:56:33.628Z,95.63
2018-09-22T09:57:33.602Z,95.63
2018-09-22T09:58:33.574Z,90.00
2018-09-22T09:59:33.548Z,84.38
2018-09-22T10:00:33.526Z,90.00
2018-09-22T10:01:33.509Z,84.38
2018-09-22T10:02:33.473Z,90.00
2018-09-22T10:03:33.454Z,90.00
2018-09-22T10:04:33.458Z,101.25
2018-09-22T10:05:33.394Z,106.88
2018-09-22T10:06:33.376Z,106.88
2018-09-22T10:07:33.343Z,101.25
2018-09-22T10:08:33.334Z,90.00
2018-09-22T10:09:33.298Z,95.63
2018-09-22T10:10:33.264Z,95.63
2018-09-22T10:11:33.245Z,95.63
2018-09-22T10:12:33.216Z,101.25
2018-09-22T10:13:33.188Z,95.63
2018-09-22T10:14:33.165Z,90.00
2018-09-22T10:15:33.142Z,90.00
2018-09-22T10:16:33.110Z,84.38
2018-09-22T10:17:33.096Z,78.75
2018-09-22T10:18:33.062Z,73.13
2018-09-22T10:19:33.043Z,73.13
2018-09-22T10:20:33.013Z,67.50
2018-09-22T10:21:32.990Z,67.50
2018-09-22T10:22:32.956Z,78.75
2018-09-22T10:23:32.935Z,84.38
2018-09-22T10:24:32.901Z,90.00
2018-09-22T10:25:32.882Z,101.25
2018-09-22T10:26:32.853Z,123.75
2018-09-22T10:27:32.831Z,118.13
2018-09-22T10:28:32.955Z,118.13
2018-09-22T10:29:32.780Z,129.38
2018-09-22T10:30:32.751Z,123.75
2018-09-22T10:31:32.728Z,118.13
2018-09-22T10:32:32.696Z,112.50
2018-09-22T10:33:32.672Z,106.88
2018-09-22T10:34:32.677Z,101.25
2018-09-22T10:35:32.621Z,106.88
2018-09-22T10:36:32.594Z,106.88
2018-09-22T10:37:32.572Z,101.25
2018-09-22T10:38:32.544Z,101.25
2018-09-22T10:39:32.513Z,101.25
2018-09-22T10:40:32.495Z,112.50
2018-09-22T10:41:32.460Z,106.88
2018-09-22T10:42:32.438Z,123.75
2018-09-22T10:43:32.418Z,129.38
2018-09-22T10:44:32.382Z,106.88
2018-09-22T10:45:32.360Z,112.50
2018-09-22T10:46:32.346Z,112.50
2018-09-22T10:47:32.307Z,106.88
2018-09-22T10:48:32.289Z,106.88
2018-09-22T10:49:32.278Z,95.63
2018-09-22T10:50:32.233Z,95.63
2018-09-22T10:51:32.204Z,90.00
2018-09-22T10:52:32.231Z,90.00
2018-09-22T10:53:32.154Z,95.63
2018-09-22T10:54:32.139Z,106.88
2018-09-22T10:55:32.110Z,101.25
2018-09-22T10:56:32.075Z,90.00
2018-09-22T10:57:32.059Z,101.25
2018-09-22T10:58:32.025Z,118.13
2018-09-22T10:59:32.001Z,129.38
2018-09-22T11:00:31.979Z,123.75
2018-09-22T11:01:31.956Z,140.63
2018-09-22T11:02:31.929Z,151.88
2018-09-22T11:03:31.904Z,168.75
2018-09-22T11:04:31.888Z,168.75
2018-09-22T11:05:31.847Z,168.75
2018-09-22T11:06:31.824Z,174.38
2018-09-22T11:07:31.807Z,168.75
2018-09-22T11:08:31.765Z,157.50
2018-09-22T11:09:31.746Z,151.88
2018-09-22T11:10:31.724Z,157.50
2018-09-22T11:11:31.693Z,174.38
2018-09-22T11:12:31.696Z,163.13
2018-09-22T11:13:31.643Z,168.75
2018-09-22T11:14:31.616Z,174.38
2018-09-22T11:15:31.590Z,185.63
2018-09-22T11:16:31.585Z,208.13
2018-09-22T11:17:31.543Z,213.75
2018-09-22T11:18:31.511Z,225.00
2018-09-22T11:19:31.489Z,225.00
2018-09-22T11:20:31.461Z,236.25
2018-09-22T11:21:31.434Z,213.75
2018-09-22T11:22:31.414Z,219.38
2018-09-22T11:23:31.385Z,219.38
2018-09-22T11:24:31.365Z,219.38
2018-09-22T11:25:31.337Z,253.13
2018-09-22T11:26:31.307Z,225.00
2018-09-22T11:27:31.285Z,208.13
2018-09-22T11:28:31.258Z,191.25
2018-09-22T11:29:31.237Z,180.00
2018-09-22T11:30:31.208Z,168.75
2018-09-22T11:31:31.195Z,180.00
2018-09-22T11:32:31.173Z,202.50
2018-09-22T11:33:31.137Z,202.50
2018-09-22T11:34:31.108Z,202.50
2018-09-22T11:35:31.077Z,208.13
2018-09-22T11:36:31.051Z,230.63
2018-09-22T11:37:31.034Z,241.88
2018-09-22T11:38:31.040Z,247.50
2018-09-22T11:39:30.974Z,264.38
2018-09-22T11:40:30.946Z,275.63
2018-09-22T11:41:30.923Z,270.00
2018-09-22T11:42:30.898Z,270.00
2018-09-22T11:43:30.894Z,264.38
2018-09-22T11:44:30.848Z,275.63
2018-09-22T11:45:30.818Z,281.25
2018-09-22T11:46:30.794Z,270.00
2018-09-22T11:47:30.770Z,258.75
2018-09-22T11:48:30.749Z,253.13
2018-09-22T11:49:30.719Z,236.25
2018-09-22T11:50:30.695Z,219.38
2018-09-22T11:51:30.675Z,208.13
2018-09-22T11:52:30.646Z,225.00
2018-09-22T11:53:30.620Z,230.63
2018-09-22T11:54:30.608Z,230.63
2018-09-22T11:55:30.570Z,219.38
2018-09-22T11:56:30.608Z,219.38
2018-09-22T11:57:30.512Z,196.88
2018-09-22T11:58:30.501Z,185.63
2018-09-22T11:59:30.496Z,196.88
2018-09-22T12:00:30.443Z,225.00
2018-09-22T12:01:30.420Z,225.00
2018-09-22T12:02:30.386Z,219.38
2018-09-22T12:03:30.368Z,219.38
2018-09-22T12:04:30.338Z,230.63
2018-09-22T12:05:30.316Z,196.88
2018-09-22T12:06:30.376Z,202.50
2018-09-22T12:07:30.286Z,202.50
2018-09-22T12:08:30.244Z,163.13
2018-09-22T12:09:30.226Z,146.25
2018-09-22T12:10:30.199Z,146.25
2018-09-22T12:11:30.171Z,163.13
2018-09-22T12:12:30.166Z,146.25
2018-09-22T12:13:30.109Z,135.00
2018-09-22T12:14:30.092Z,106.88
2018-09-22T12:15:30.061Z,78.75
2018-09-22T12:16:30.033Z,78.75
2018-09-22T12:17:30.014Z,84.38
2018-09-22T12:18:29.985Z,84.38
2018-09-22T12:19:29.970Z,101.25
2018-09-22T12:20:29.938Z,112.50
2018-09-22T12:21:29.970Z,106.88
2018-09-22T12:22:29.884Z,129.38
2018-09-22T12:23:29.871Z,157.50
2018-09-22T12:24:29.831Z,191.25
2018-09-22T12:25:29.826Z,196.88
2018-09-22T12:26:29.779Z,191.25
2018-09-22T12:27:29.751Z,180.00
2018-09-22T12:28:29.756Z,168.75
2018-09-22T12:29:29.702Z,151.88
2018-09-22T12:30:29.683Z,140.63
2018-09-22T12:31:29.651Z,140.63
2018-09-22T12:32:29.631Z,140.63
2018-09-22T12:33:29.602Z,146.25
2018-09-22T12:34:29.573Z,151.88
2018-09-22T12:35:29.552Z,163.13
2018-09-22T12:36:29.523Z,168.75
2018-09-22T12:37:29.495Z,180.00
2018-09-22T12:38:29.479Z,202.50
2018-09-22T12:39:29.451Z,230.63
2018-09-22T12:40:29.433Z,213.75
2018-09-22T12:41:29.400Z,202.50
2018-09-22T12:42:29.369Z,219.38
2018-09-22T12:43:29.366Z,247.50
2018-09-22T12:44:29.327Z,247.50
2018-09-22T12:45:29.351Z,247.50
2018-09-22T12:46:29.277Z,230.63
2018-09-22T12:47:29.255Z,225.00
2018-09-22T12:48:29.223Z,196.88
2018-09-22T12:49:29.195Z,202.50
2018-09-22T12:50:29.179Z,168.75
2018-09-22T12:51:29.156Z,140.63
2018-09-22T12:52:29.115Z,129.38
2018-09-22T12:53:29.093Z,135.00
2018-09-22T12:54:29.069Z,140.63
2018-09-22T12:55:29.045Z,151.88
2018-09-22T12:56:29.019Z,151.88
2018-09-22T12:57:28.992Z,135.00
2018-09-22T12:58:28.969Z,129.38
2018-09-22T12:59:28.943Z,123.75
2018-09-22T13:00:28.956Z,129.38
2018-09-22T13:01:28.889Z,146.25
2018-09-22T13:02:28.858Z,151.88
2018-09-22T13:03:28.839Z,163.13
2018-09-22T13:04:28.811Z,180.00